createdAt,value
2022-10-13T20:47:15.926Z,61.61
2022-10-13T20:49:42.315Z,61.56
2022-10-13T20:52:08.687Z,60.39
2022-10-13T20:54:35.061Z,59.21
2022-10-13T20:57:01.437Z,58.38
2022-10-13T20:59:27.814Z,57.79
2022-10-13T21:01:54.191Z,57.52
2022-10-13T21:04:20.551Z,57.64
2022-10-13T21:06:46.945Z,57.40
2022-10-13T21:09:13.309Z,57.40
2022-10-13T21:11:39.705Z,57.20
2022-10-13T21:14:06.080Z,57.13
2022-10-13T21:16:32.444Z,57.09
2022-10-13T21:18:58.821Z,57.03
2022-10-13T21:21:25.178Z,57.18
2022-10-13T21:23:51.564Z,57.44
2022-10-13T21:26:21.632Z,57.15
2022-10-13T21:28:48.603Z,57.07
2022-10-13T21:31:15.019Z,57.56
2022-10-13T21:33:41.389Z,57.23
2022-10-13T21:36:07.750Z,57.15
2022-10-13T21:38:34.120Z,57.51
2022-10-13T21:41:00.480Z,57.34
2022-10-13T21:43:26.840Z,57.71
2022-10-13T21:45:53.210Z,57.26
2022-10-13T21:48:19.568Z,57.11
2022-10-13T21:50:45.935Z,57.14
2022-10-13T21:53:12.306Z,57.14
2022-10-13T21:55:38.662Z,57.17
2022-10-13T21:58:05.464Z,57.56
2022-10-13T22:00:31.994Z,58.07
2022-10-13T22:02:58.376Z,57.63
2022-10-13T22:05:24.746Z,57.65
2022-10-13T22:07:51.122Z,57.64
2022-10-13T22:10:17.487Z,57.72
2022-10-13T22:12:43.835Z,57.71
2022-10-13T22:15:10.204Z,57.56
2022-10-13T22:17:36.574Z,57.58
2022-10-13T22:20:02.936Z,57.58
2022-10-13T22:22:31.073Z,57.75
2022-10-13T22:24:57.595Z,57.74
2022-10-13T22:27:24.030Z,57.80
2022-10-13T22:29:50.396Z,57.73
2022-10-13T22:32:16.767Z,57.75
2022-10-13T22:34:43.128Z,57.90
2022-10-13T22:37:09.493Z,57.68
2022-10-13T22:39:35.859Z,57.76
2022-10-13T22:42:02.230Z,57.76
2022-10-13T22:44:28.593Z,58.02
2022-10-13T22:46:54.943Z,57.90
2022-10-13T22:49:21.313Z,57.87
2022-10-13T22:51:47.684Z,58.07
2022-10-13T22:54:14.046Z,57.99
2022-10-13T22:56:40.420Z,58.16
2022-10-13T22:59:06.786Z,57.98
2022-10-13T23:01:33.167Z,57.97
2022-10-13T23:03:59.592Z,58.15
2022-10-13T23:06:26.015Z,58.20
2022-10-13T23:08:52.363Z,58.11
2022-10-13T23:11:18.725Z,58.29
2022-10-13T23:13:45.095Z,58.04
2022-10-13T23:16:11.475Z,58.04
2022-10-13T23:18:37.842Z,58.19
2022-10-13T23:21:04.220Z,58.10
2022-10-13T23:23:30.584Z,58.08
2022-10-13T23:25:56.936Z,58.14
2022-10-13T23:28:23.366Z,58.02
2022-10-13T23:30:49.773Z,57.97
2022-10-13T23:33:16.136Z,58.23
2022-10-13T23:35:42.502Z,58.17
2022-10-13T23:38:08.869Z,58.08
2022-10-13T23:40:35.246Z,58.35
2022-10-13T23:43:01.627Z,58.49
2022-10-13T23:45:27.987Z,58.44
2022-10-13T23:47:54.349Z,58.46
2022-10-13T23:50:20.733Z,58.21
2022-10-13T23:52:47.092Z,58.39
2022-10-13T23:55:13.458Z,58.37
2022-10-13T23:57:39.838Z,58.33
